SWA2210 KBNA-KSAT
Flight info
| Callsign | SWA2210 |
|---|---|
| Flight time | N/A |
| Altitude | 38000 |
| Route | DRURY4 JALAR DCT SQS DCT AEX DCT CAAGE QERVO3 |
| Aircraft | B738/M-SDE2E3FGHIRWXY/LB1 |
Departure
| Time | N/A |
|---|---|
| Airport | Nashville International Airport (KBNA) |
Arrival
| Time | 2026-04-24 19:21 |
|---|---|
| Airport | San Antonio International Airport (KSAT) |
| Time | Latitude | Longitude | Altitude | Speed | Heading |
|---|---|---|---|---|---|
| 2026-04-24 16:59 | 36.12742 | -86.66886 | 584 ft | 0 kts | 329° |
| 2026-04-24 17:09 | 36.12731 | -86.66877 | 569 ft | 2 kts | 321° |
| 2026-04-24 17:09 | 36.12718 | -86.66862 | 567 ft | 2 kts | 303° |
| 2026-04-24 17:10 | 36.12713 | -86.66848 | 569 ft | 0 kts | 275° |
| 2026-04-24 17:10 | 36.12742 | -86.66886 | 566 ft | 0 kts | 329° |
| 2026-04-24 18:54 | 29.79379 | -96.37600 | 37805 ft | 362 kts | 276° |
| 2026-04-24 18:55 | 29.80025 | -96.46270 | 37356 ft | 370 kts | 275° |
| 2026-04-24 18:55 | 29.80243 | -96.49230 | 36817 ft | 369 kts | 276° |
| 2026-04-24 18:56 | 29.80459 | -96.52164 | 36264 ft | 367 kts | 276° |
| 2026-04-24 18:56 | 29.80674 | -96.55101 | 35648 ft | 367 kts | 276° |
| 2026-04-24 18:56 | 29.80887 | -96.58012 | 35166 ft | 364 kts | 276° |
| 2026-04-24 18:56 | 29.81101 | -96.60927 | 34583 ft | 365 kts | 276° |
| 2026-04-24 18:57 | 29.81316 | -96.63834 | 34050 ft | 364 kts | 276° |
| 2026-04-24 18:57 | 29.81529 | -96.66731 | 33537 ft | 362 kts | 276° |
| 2026-04-24 18:57 | 29.81741 | -96.69624 | 33041 ft | 360 kts | 276° |
| 2026-04-24 18:57 | 29.81948 | -96.72456 | 32556 ft | 357 kts | 276° |
| 2026-04-24 18:58 | 29.82155 | -96.75297 | 32050 ft | 356 kts | 276° |
| 2026-04-24 18:58 | 29.82361 | -96.78134 | 31494 ft | 356 kts | 276° |
| 2026-04-24 18:58 | 29.82567 | -96.80968 | 31041 ft | 354 kts | 276° |
| 2026-04-24 18:58 | 29.82770 | -96.83781 | 30581 ft | 352 kts | 275° |
| 2026-04-24 18:59 | 29.82971 | -96.86582 | 30150 ft | 350 kts | 275° |
| 2026-04-24 18:59 | 29.83171 | -96.89370 | 29677 ft | 349 kts | 275° |
| 2026-04-24 18:59 | 29.83370 | -96.92147 | 29191 ft | 346 kts | 275° |
| 2026-04-24 18:59 | 29.83567 | -96.94903 | 28717 ft | 344 kts | 275° |
| 2026-04-24 19:00 | 29.83762 | -96.97646 | 28270 ft | 341 kts | 275° |
| 2026-04-24 19:00 | 29.83955 | -97.00363 | 27823 ft | 339 kts | 275° |
| 2026-04-24 19:00 | 29.84146 | -97.03055 | 27357 ft | 336 kts | 275° |
| 2026-04-24 19:00 | 29.84334 | -97.05730 | 26952 ft | 334 kts | 275° |
| 2026-04-24 19:01 | 29.84519 | -97.08352 | 26534 ft | 332 kts | 275° |
| 2026-04-24 19:01 | 29.84705 | -97.11009 | 25945 ft | 335 kts | 275° |
| 2026-04-24 19:01 | 29.84896 | -97.13705 | 25313 ft | 340 kts | 275° |
| 2026-04-24 19:01 | 29.85086 | -97.16418 | 24832 ft | 340 kts | 275° |
| 2026-04-24 19:02 | 29.85212 | -97.18216 | 24567 ft | 338 kts | 275° |
| 2026-04-24 19:02 | 29.85465 | -97.21823 | 24039 ft | 336 kts | 275° |
| 2026-04-24 19:02 | 29.85651 | -97.24502 | 23621 ft | 335 kts | 275° |
| 2026-04-24 19:02 | 29.85837 | -97.27177 | 23167 ft | 335 kts | 275° |
| 2026-04-24 19:03 | 29.86022 | -97.29848 | 22703 ft | 334 kts | 275° |
| 2026-04-24 19:03 | 29.86206 | -97.32502 | 22285 ft | 331 kts | 275° |
| 2026-04-24 19:03 | 29.86388 | -97.35149 | 21863 ft | 329 kts | 275° |
| 2026-04-24 19:03 | 29.86566 | -97.37731 | 21458 ft | 327 kts | 275° |
| 2026-04-24 19:04 | 29.86744 | -97.40332 | 21046 ft | 325 kts | 275° |
| 2026-04-24 19:04 | 29.86922 | -97.42935 | 20627 ft | 324 kts | 275° |
| 2026-04-24 19:04 | 29.87097 | -97.45519 | 20210 ft | 323 kts | 275° |
| 2026-04-24 19:04 | 29.87271 | -97.48094 | 19810 ft | 322 kts | 275° |
| 2026-04-24 19:05 | 29.87444 | -97.50663 | 19417 ft | 321 kts | 274° |
| 2026-04-24 19:05 | 29.87614 | -97.53212 | 19033 ft | 319 kts | 274° |
| 2026-04-24 19:05 | 29.87785 | -97.55767 | 18653 ft | 318 kts | 274° |
| 2026-04-24 19:05 | 29.87955 | -97.58307 | 18276 ft | 318 kts | 274° |
| 2026-04-24 19:06 | 29.88123 | -97.60836 | 17876 ft | 316 kts | 274° |
| 2026-04-24 19:06 | 29.88291 | -97.63365 | 17451 ft | 316 kts | 274° |
| 2026-04-24 19:06 | 29.88457 | -97.65882 | 17028 ft | 315 kts | 274° |
| 2026-04-24 19:06 | 29.88623 | -97.68395 | 16610 ft | 314 kts | 274° |
| 2026-04-24 19:07 | 29.88788 | -97.70911 | 16213 ft | 313 kts | 274° |
| 2026-04-24 19:07 | 29.88952 | -97.73405 | 15841 ft | 312 kts | 274° |
| 2026-04-24 19:07 | 29.89060 | -97.75054 | 15586 ft | 311 kts | 273° |
| 2026-04-24 19:07 | 29.89275 | -97.78343 | 15060 ft | 310 kts | 273° |
| 2026-04-24 19:08 | 29.89436 | -97.80821 | 14663 ft | 310 kts | 273° |
| 2026-04-24 19:08 | 29.89596 | -97.83294 | 14292 ft | 310 kts | 273° |
| 2026-04-24 19:08 | 29.89685 | -97.85758 | 13921 ft | 308 kts | 264° |
| 2026-04-24 19:08 | 29.89186 | -97.88142 | 13541 ft | 306 kts | 250° |
| 2026-04-24 19:09 | 29.88423 | -97.90427 | 13158 ft | 305 kts | 249° |
| 2026-04-24 19:09 | 29.87652 | -97.92704 | 12751 ft | 305 kts | 249° |
| 2026-04-24 19:09 | 29.86887 | -97.94991 | 12340 ft | 305 kts | 249° |
| 2026-04-24 19:09 | 29.86121 | -97.97274 | 11963 ft | 304 kts | 249° |
| 2026-04-24 19:10 | 29.85359 | -97.99543 | 11580 ft | 304 kts | 249° |
| 2026-04-24 19:10 | 29.84610 | -98.01778 | 11220 ft | 303 kts | 249° |
| 2026-04-24 19:10 | 29.83853 | -98.04039 | 10856 ft | 302 kts | 249° |
| 2026-04-24 19:10 | 29.83108 | -98.06277 | 10693 ft | 295 kts | 249° |
| 2026-04-24 19:11 | 29.82389 | -98.08440 | 10607 ft | 284 kts | 249° |
| 2026-04-24 19:11 | 29.81692 | -98.10532 | 10518 ft | 275 kts | 249° |
| 2026-04-24 19:11 | 29.81011 | -98.12577 | 10303 ft | 272 kts | 249° |
| 2026-04-24 19:11 | 29.80334 | -98.14604 | 10011 ft | 272 kts | 249° |
| 2026-04-24 19:12 | 29.79658 | -98.16634 | 9724 ft | 271 kts | 249° |
| 2026-04-24 19:12 | 29.78985 | -98.18656 | 9406 ft | 270 kts | 249° |
| 2026-04-24 19:12 | 29.78310 | -98.20685 | 9102 ft | 270 kts | 249° |
| 2026-04-24 19:12 | 29.77643 | -98.22690 | 8793 ft | 269 kts | 249° |
| 2026-04-24 19:13 | 29.77197 | -98.24026 | 8553 ft | 270 kts | 250° |
| 2026-04-24 19:13 | 29.76298 | -98.26725 | 8157 ft | 269 kts | 250° |
| 2026-04-24 19:13 | 29.75624 | -98.28744 | 7836 ft | 270 kts | 250° |
| 2026-04-24 19:13 | 29.74962 | -98.30725 | 7591 ft | 269 kts | 250° |
| 2026-04-24 19:14 | 29.74289 | -98.32737 | 7333 ft | 270 kts | 251° |
| 2026-04-24 19:14 | 29.73612 | -98.34758 | 7071 ft | 270 kts | 251° |
| 2026-04-24 19:14 | 29.72942 | -98.36772 | 6813 ft | 269 kts | 252° |
| 2026-04-24 19:14 | 29.72291 | -98.38787 | 6557 ft | 268 kts | 252° |
| 2026-04-24 19:15 | 29.71643 | -98.40796 | 6287 ft | 269 kts | 252° |
| 2026-04-24 19:15 | 29.71016 | -98.42832 | 6030 ft | 268 kts | 259° |
| 2026-04-24 19:15 | 29.70920 | -98.44887 | 5986 ft | 254 kts | 275° |
| 2026-04-24 19:15 | 29.71003 | -98.46877 | 5957 ft | 245 kts | 274° |
| 2026-04-24 19:16 | 29.71141 | -98.50677 | 5977 ft | 236 kts | 274° |
| 2026-04-24 19:16 | 29.71185 | -98.51952 | 5960 ft | 236 kts | 275° |
| 2026-04-24 19:16 | 29.71247 | -98.53824 | 5983 ft | 233 kts | 275° |
| 2026-04-24 19:17 | 29.71296 | -98.55662 | 5976 ft | 232 kts | 270° |
| 2026-04-24 19:17 | 29.70817 | -98.57432 | 5953 ft | 236 kts | 237° |
| 2026-04-24 19:17 | 29.69696 | -98.58842 | 5963 ft | 242 kts | 225° |
| 2026-04-24 19:17 | 29.68435 | -98.60122 | 5945 ft | 241 kts | 224° |
| 2026-04-24 19:18 | 29.67125 | -98.61308 | 5762 ft | 242 kts | 207° |
| 2026-04-24 19:18 | 29.65491 | -98.61599 | 5580 ft | 239 kts | 167° |
| 2026-04-24 19:18 | 29.64080 | -98.60753 | 5537 ft | 223 kts | 140° |
| 2026-04-24 19:18 | 29.62917 | -98.59594 | 5281 ft | 219 kts | 137° |
| 2026-04-24 19:19 | 29.61868 | -98.58387 | 5097 ft | 211 kts | 132° |
| 2026-04-24 19:19 | 29.60861 | -98.57093 | 4485 ft | 226 kts | 132° |
| 2026-04-24 19:19 | 29.59799 | -98.55713 | 3901 ft | 234 kts | 133° |
| 2026-04-24 19:19 | 29.58708 | -98.54301 | 3304 ft | 236 kts | 133° |
| 2026-04-24 19:20 | 29.57643 | -98.52912 | 2795 ft | 226 kts | 132° |
| 2026-04-24 19:20 | 29.56671 | -98.51581 | 2383 ft | 214 kts | 133° |
| 2026-04-24 19:20 | 29.55646 | -98.50331 | 1675 ft | 215 kts | 136° |
| 2026-04-24 19:20 | 29.54809 | -98.49035 | 1267 ft | 193 kts | 122° |
| 2026-04-24 19:21 | 29.54086 | -98.47829 | 856 ft | 174 kts | 136° |
| 2026-04-24 19:21 | 29.53439 | -98.47025 | 797 ft | 77 kts | 130° |
| 2026-04-24 19:21 | 29.53309 | -98.46855 | 792 ft | 5 kts | 142° |
| 2026-04-24 19:21 | 29.53306 | -98.46853 | 792 ft | 1 kts | 150° |
| 2026-04-24 19:22 | 29.53305 | -98.46853 | 792 ft | 0 kts | 150° |